createdAt,value
2023-06-18T00:01:00.434Z,56.5
2023-06-18T00:11:01.815Z,57.5
2023-06-18T00:21:03.188Z,58
2023-06-18T00:41:05.931Z,58
2023-06-18T00:51:07.286Z,58.5
2023-06-18T01:01:08.693Z,58
2023-06-18T01:21:11.443Z,58
2023-06-18T01:41:14.266Z,58
2023-06-18T02:11:25.044Z,59
2023-06-18T02:21:19.744Z,58.5
2023-06-18T02:31:27.737Z,58.5
2023-06-18T02:41:22.450Z,58.5
2023-06-18T02:51:23.854Z,60
2023-06-18T03:01:25.247Z,58
2023-06-18T03:31:29.368Z,58.5
2023-06-18T03:41:30.740Z,58.5
2023-06-18T04:01:33.513Z,58
2023-06-18T04:11:34.997Z,57.5
2023-06-18T04:31:37.648Z,59.5
2023-06-18T04:41:39.020Z,59.5
2023-06-18T04:51:40.435Z,59.5
2023-06-18T05:21:44.593Z,62
2023-06-18T05:31:45.971Z,62.5
2023-06-18T05:41:47.315Z,62
2023-06-18T05:51:48.692Z,62
2023-06-18T06:11:51.472Z,60
2023-06-18T06:31:54.245Z,61
2023-06-18T06:41:55.630Z,60.5
2023-06-18T06:51:56.997Z,60
2023-06-18T07:01:59.396Z,58
2023-06-18T07:11:59.779Z,55
2023-06-18T07:32:02.548Z,54
2023-06-18T07:42:03.949Z,54
2023-06-18T08:02:06.732Z,53.5
2023-06-18T08:12:08.033Z,49.5
2023-06-18T08:22:09.410Z,49
2023-06-18T08:42:12.163Z,49.5
2023-06-18T08:52:13.510Z,48
2023-06-18T09:02:14.908Z,46
2023-06-18T09:12:16.230Z,46.5
2023-06-18T09:22:17.591Z,48
2023-06-18T09:42:20.359Z,46
2023-06-18T10:02:23.124Z,43
2023-06-18T10:12:24.359Z,41.5
2023-06-18T10:32:27.090Z,42.5
2023-06-18T10:42:28.459Z,41.5
2023-06-18T10:52:30.448Z,40
2023-06-18T11:02:31.141Z,43
2023-06-18T11:12:32.485Z,41.5
2023-06-18T11:22:33.789Z,40
2023-06-18T11:42:36.465Z,38.5
2023-06-18T11:52:37.839Z,39
2023-06-18T12:02:39.221Z,36.5
2023-06-18T12:12:40.645Z,41
2023-06-18T12:32:43.283Z,43
2023-06-18T12:42:44.606Z,44.5
2023-06-18T12:52:46.113Z,47
2023-06-18T13:02:47.340Z,48
2023-06-18T13:12:48.652Z,49
2023-06-18T13:22:50.044Z,51
2023-06-18T14:02:55.459Z,50
2023-06-18T14:12:56.773Z,48
2023-06-18T14:22:58.210Z,49
2023-06-18T14:32:59.555Z,50
2023-06-18T14:43:00.888Z,48.5
2023-06-18T15:13:05.000Z,50
2023-06-18T15:33:07.777Z,48.5
2023-06-18T15:53:10.476Z,47.5
2023-06-18T16:03:11.824Z,46.5
2023-06-18T16:13:13.198Z,50.5
2023-06-18T16:23:14.569Z,48
2023-06-18T16:33:15.955Z,47
2023-06-18T16:43:17.284Z,46.5
2023-06-18T16:53:18.665Z,47.5
2023-06-18T17:03:20.034Z,47.5
2023-06-18T17:33:24.135Z,50.5
2023-06-18T17:43:25.507Z,52
2023-06-18T17:53:26.882Z,52
2023-06-18T18:03:28.277Z,53.5
2023-06-18T18:23:30.995Z,55.5
2023-06-18T18:43:33.690Z,57.5
2023-06-18T18:53:35.059Z,58.5
2023-06-18T19:03:36.450Z,59
2023-06-18T19:13:37.823Z,57.5
2023-06-18T19:23:39.286Z,58
2023-06-18T19:33:40.623Z,58.5
2023-06-18T19:43:42.175Z,60
2023-06-18T19:53:43.653Z,61
2023-06-18T20:23:47.501Z,63
2023-06-18T20:33:48.856Z,62.5
2023-06-18T20:43:50.343Z,62.5
2023-06-18T20:53:51.759Z,62.5
2023-06-18T21:23:55.810Z,63.5
2023-06-18T21:33:57.248Z,64
2023-06-18T21:43:58.622Z,64
2023-06-18T21:53:59.981Z,64
2023-06-18T22:14:02.758Z,64.5
2023-06-18T22:24:04.235Z,65
2023-06-18T22:34:05.533Z,65.5
2023-06-18T22:44:06.927Z,65
2023-06-18T22:54:08.311Z,64.5
2023-06-18T23:24:12.525Z,66
2023-06-18T23:34:13.885Z,66.5
2023-06-18T23:44:15.268Z,67
2023-06-18T23:54:16.682Z,66
